• Join FlightAware (Why Join?)
  • Login
  • US Flag 
09:44PM EDT


 

Airport Tracker/Info


-or-


 

Live Flight TrackerFlight Track Log ✈ SWA1319 ✈ 15-Apr-2013 ✈ KBHM - KDAL

Flight Track Log - Related Links

Times and Time Zones

All times are in EDT time to prevent confusion due to time zone crossing. See the SWA1319 flight status page for this flight to view local times or setup timezone preferences in your user account.

Time Position Orientation Groundspeed Altitude Reporting Facility
EDT Latitude Longitude Course Direction KTS MPH feet Rate Location/Type
01:26PM 33.6217 -86.6981 38° Northeast 234 269 4,100  Level Atlanta Center
01:27PM 33.6603 -86.7417 317° Northwest 241 277 6,300 2,460 Climbing Atlanta Center
01:28PM 33.6519 -86.8289 263° West 252 290 9,200 1,980 Climbing Atlanta Center
01:29PM 33.6436 -86.9283 264° West 278 320 10,300 2,100 Climbing Atlanta Center
01:30PM 33.6322 -87.0453 263° West 323 372 13,400 2,400 Climbing Atlanta Center
01:31PM 33.6214 -87.1447 263° West 338 389 15,200 2,040 Climbing Atlanta Center
01:32PM 33.6100 -87.2689 264° West 360 414 17,500 2,100 Climbing Atlanta Center
01:34PM 33.5900 -87.4644 263° West 403 464 20,400 1,860 Climbing Memphis Center
01:35PM 33.5761 -87.5897 262° West 405 466 22,200 1,740 Climbing Memphis Center
01:36PM 33.5644 -87.7222 264° West 405 466 23,900 1,560 Climbing Memphis Center
01:37PM 33.5506 -87.8547 263° West 405 466 25,400 1,620 Climbing Memphis Center
01:38PM 33.5386 -87.9897 264° West 411 473 27,200 1,800 Climbing Memphis Center
01:39PM 33.5242 -88.1194 262° West 411 473 29,000 1,380 Climbing Memphis Center
01:40PM 33.5158 -88.2319 265° West 406 467 30,000 3,480 Climbing Memphis Center
01:41PM 33.5011 -88.3592 262° West 399 459 36,000 1,380 Climbing Memphis Center
01:42PM 33.4889 -88.4992 264° West 394 453 32,800 -1,140 Descending Memphis Center
01:43PM 33.4864 -88.6261 269° West 389 448 33,800 900 Climbing Memphis Center
01:44PM 33.4861 -88.7483 270° West 384 442 34,600 780 Climbing Memphis Center
01:45PM 33.4833 -88.8778 269° West 384 442 35,400 660 Climbing Memphis Center
01:46PM 33.4828 -88.9997 270° West 384 442 36,000 300 Climbing Memphis Center
01:47PM 33.4819 -89.1269 270° West 384 442 36,000  Level Memphis Center
01:48PM 33.4811 -89.2489 270° West 384 442 36,000  Level Memphis Center
01:49PM 33.4800 -89.3733 269° West 379 436 36,000  Level Memphis Center
01:50PM 33.4767 -89.5006 268° West 384 442 36,000  Level Memphis Center
01:51PM 33.4756 -89.6250 269° West 384 442 36,000  Level Memphis Center
01:52PM 33.4742 -89.7469 269° West 384 442 36,000  Level Memphis Center
01:53PM 33.4706 -89.8717 268° West 384 442 36,000  Level Memphis Center
01:54PM 33.4689 -89.9936 269° West 384 442 36,000  Level Memphis Center
01:55PM 33.4669 -90.1058 269° West 384 442 36,000  Level Memphis Center
01:56PM 33.4631 -90.2278 268° West 379 436 36,000  Level Memphis Center
01:57PM 33.4297 -90.3422 251° West 379 436 36,000  Level Memphis Center
01:58PM 33.3753 -90.4467 238° Southwest 366 421 36,000  Level Memphis Center
01:59PM 33.3211 -90.5486 238° Southwest 366 421 36,000  Level Memphis Center
02:00PM 33.2644 -90.6528 237° Southwest 376 433 36,000  Level Memphis Center
02:01PM 33.2119 -90.7519 238° Southwest 371 427 36,000 -480 Level Memphis Center
02:02PM 33.1697 -90.8661 246° West 371 427 35,100 -900 Descending Memphis Center
02:03PM 33.1381 -90.9800 252° West 365 420 34,200 -600 Descending Memphis Center
02:04PM 33.1081 -91.0964 253° West 365 420 34,000 -120 Descending Memphis Center
02:05PM 33.0739 -91.2150 251° West 370 426 34,000  Level Memphis Center
02:06PM 33.0258 -91.4081 254° West 365 420 34,000  Level Fort Worth Center
02:07PM 32.9939 -91.5267 252° West 371 427 34,000  Level Fort Worth Center
02:08PM 32.9617 -91.6400 251° West 371 427 34,000  Level Fort Worth Center
02:09PM 32.9378 -91.7578 256° West 371 427 34,000  Level Fort Worth Center
02:10PM 32.9319 -91.8622 266° West 361 415 34,000  Level Fort Worth Center
02:11PM 32.9061 -91.9825 256° West 361 415 34,000  Level Fort Worth Center
02:12PM 32.8842 -92.1025 258° West 361 415 34,000  Level Fort Worth Center
02:13PM 32.8661 -92.2200 260° West 361 415 34,000  Level Fort Worth Center
02:14PM 32.8478 -92.3372 259° West 366 421 34,000  Level Fort Worth Center
02:15PM 32.8236 -92.4597 257° West 366 421 34,000  Level Fort Worth Center
02:16PM 32.8072 -92.5742 260° West 366 421 34,000  Level Fort Worth Center
02:17PM 32.7864 -92.6914 258° West 371 427 34,000  Level Fort Worth Center
02:18PM 32.7681 -92.8108 260° West 371 427 34,000  Level Fort Worth Center
02:19PM 32.7472 -92.9281 258° West 371 427 34,000  Level Fort Worth Center
02:20PM 32.7264 -93.0453 258° West 371 427 34,000  Level Fort Worth Center
02:21PM 32.7053 -93.1597 258° West 371 427 34,000  Level Fort Worth Center
02:22PM 32.6839 -93.2767 258° West 366 421 34,000  Level Fort Worth Center
02:23PM 32.6628 -93.3936 258° West 366 421 34,000  Level Fort Worth Center
02:24PM 32.6433 -93.5106 259° West 366 421 34,000  Level Fort Worth Center
02:25PM 32.6200 -93.6275 257° West 361 415 34,000  Level Fort Worth Center
02:26PM 32.5983 -93.7417 257° West 361 415 34,000  Level Fort Worth Center
02:27PM 32.5769 -93.8708 259° West 361 415 34,000  Level Fort Worth Center
02:28PM 32.5550 -93.9875 257° West 361 415 34,000  Level Fort Worth Center
02:29PM 32.5353 -94.1042 259° West 356 410 34,000  Level Fort Worth Center
02:30PM 32.5133 -94.2231 258° West 356 410 34,000  Level Fort Worth Center
02:31PM 32.4931 -94.3372 258° West 356 410 34,000  Level Fort Worth Center
02:32PM 32.4686 -94.4511 256° West 356 410 34,000  Level Fort Worth Center
02:33PM 32.4486 -94.5700 259° West 356 410 34,000 -240 Level Fort Worth Center
02:34PM 32.4281 -94.6864 258° West 356 410 33,600 -720 Descending Fort Worth Center
02:35PM 32.4369 -94.8067 275° West 362 417 32,600 -900 Descending Fort Worth Center
02:36PM 32.4497 -94.9294 277° West 367 422 31,800 -900 Descending Fort Worth Center
02:37PM 32.4606 -95.0594 276° West 391 450 30,800 -960 Descending Fort Worth Center
02:38PM 32.4756 -95.1922 278° West 403 464 29,900 -900 Descending Fort Worth Center
02:39PM 32.4858 -95.3078 276° West 408 470 29,100 -1,800 Descending Fort Worth Center
02:40PM 32.4944 -95.4381 275° West 403 464 26,400 -3,120 Descending Fort Worth Center
02:41PM 32.5067 -95.5708 276° West 403 464 22,900 -3,300 Descending Fort Worth Center
02:42PM 32.5150 -95.7133 274° West 402 463 19,900 -3,060 Descending Fort Worth Center
02:43PM 32.5250 -95.8389 275° West 387 445 16,800 -2,760 Descending Fort Worth Center
02:44PM 32.5347 -95.9594 275° West 376 433 14,400 -2,580 Descending Fort Worth Center
02:45PM 32.5425 -96.0753 275° West 370 426 11,700 -1,920 Descending Fort Worth Center
02:46PM 32.5519 -96.1861 276° West 365 420 10,600 -1,020 Descending Fort Worth Center
02:47PM 32.5592 -96.2844 275° West 319 367 9,700 -900 Descending Fort Worth Center
02:48PM 32.5869 -96.3753 290° West 296 341 8,800 -960 Descending Fort Worth Center
02:49PM 32.6292 -96.4489 304° West 291 335 7,800 -1,080 Descending Fort Worth Center
02:50PM 32.6822 -96.5372 306° West 309 356 6,700 -1,140 Descending Fort Worth Center
02:51PM 32.7450 -96.5908 324° Northwest 299 344 5,600 -900 Descending Fort Worth Center
02:52PM 32.8186 -96.6519 325° Northwest 299 344 5,000 -360 Descending Fort Worth Center
02:53PM 32.8833 -96.7000 328° Northwest 269 310 4,900 -60 Descending Dallas / Fort Worth TRACON
02:54PM 32.9333 -96.7667 312° West 247 284 4,900 -600 Level Dallas / Fort Worth TRACON
02:55PM 32.9667 -96.8333 301° West 226 260 3,700 -1,200 Descending Dallas / Fort Worth TRACON
02:56PM 32.9667 -96.9000 270° West 224 258 2,600 -900 Descending Dallas / Fort Worth TRACON
02:57PM 32.9167 -96.9167 196° South 207 238 2,000 -600 Descending Dallas / Fort Worth TRACON
02:58PM 32.8833 -96.9000 157° South 154 177 1,400 -180 Descending Dallas / Fort Worth TRACON
03:00PM 32.7589 -96.8353 156° South 149 171 1,600  Climbing Fort Worth Center
03:01PM 32.7444 -96.8553 229° Southwest 151 174 1,500 -120 Descending Fort Worth Center